Meridianville, Alabama
Current Conditions -  °F | °C
As of 2:35 PM on Thursday 23 Oct 2014 (Local Time) from KMDQ Reporting Station
Clear Clear  
Wind Chill: 70°   Ceiling: Unl
Heat Index: 70°   Visibility: 10mi
Dew Point: 28°   Wind: 7mph
Humidity: 21%   Direction: 10°N
Pressure: 30.09"   Gusts: NA
Location:  34.85°N, 86.57°W
Report Text: KMDQ 231935Z AUTO 01006KT 10SM CLR 21/M02 A3009 RMK AO2
Loading
Personal Weather Stations






























Interactive Weather Map
Tropical Storm Tracking
New forecast layout! Learn more

10-Day Weather Forecast

Advertisements
Track Severe Weather on mobile